Time;durP1;ratioP1;P1;durP2;ratioP2;P2;SDS_P1;SDS_P2;PMS_P1;PMS_P2;Temp;Humidity;BMP_temperature;BMP_pressure;BME280_temperature;BME280_humidity;BME280_pressure;Samples;Min_cycle;Max_cycle;Signal;HPM_P1;HPM_P2
2022/06/21 00:01:23;;;;;;;9.45;4.07;;;10.20;1.00;;;;;;5016035;28;20061;-84
2022/06/21 00:03:50;;;;;;;10.13;4.13;;;10.30;1.00;;;;;;5002072;28;20061;-84
2022/06/21 00:06:19;;;;;;;8.07;3.65;;;10.20;1.00;;;;;;4983277;28;20452;-84
2022/06/21 00:08:45;;;;;;;11.85;4.07;;;10.20;1.00;;;;;;4981581;28;20068;-84
2022/06/21 00:11:25;;;;;;;12.63;3.63;;;10.10;1.00;;;;;;4993543;28;20412;-89
2022/06/21 00:13:50;;;;;;;11.05;3.78;;;10.00;1.00;;;;;;4982024;28;20044;-88
2022/06/21 00:16:16;;;;;;;8.13;3.22;;;10.10;1.00;;;;;;5013864;28;20481;-88
2022/06/21 00:18:44;;;;;;;7.47;3.70;;;9.90;1.00;;;;;;4983552;28;20141;-87
2022/06/21 00:21:23;;;;;;;10.43;3.20;;;9.90;1.00;;;;;;5009941;28;20076;-88
2022/06/21 00:23:50;;;;;;;9.23;3.65;;;9.80;1.00;;;;;;5013301;28;20042;-87
2022/06/21 00:26:18;;;;;;;8.85;3.53;;;9.70;1.00;;;;;;4981522;28;20394;-88
2022/06/21 00:28:48;;;;;;;8.25;4.10;;;9.70;1.00;;;;;;5014639;28;20133;-88
2022/06/21 00:31:29;;;;;;;7.57;3.70;;;9.70;1.00;;;;;;5001411;28;20044;-88
2022/06/21 00:33:56;;;;;;;5.07;2.58;;;9.50;1.00;;;;;;5003166;28;20097;-87
2022/06/21 00:36:23;;;;;;;9.70;3.05;;;9.50;1.00;;;;;;4981971;28;20381;-88
2022/06/21 00:38:50;;;;;;;9.38;4.30;;;9.50;1.00;;;;;;5014805;28;20046;-88
2022/06/21 00:41:18;;;;;;;6.25;3.10;;;9.50;1.00;;;;;;4983020;28;20038;-88
2022/06/21 00:43:49;;;;;;;8.35;3.83;;;9.40;1.00;;;;;;4983600;28;20103;-88
2022/06/21 00:46:37;;;;;;;9.52;3.42;;;9.30;1.00;;;;;;4982842;28;20052;-89
2022/06/21 00:49:10;;;;;;;8.75;4.03;;;9.30;1.00;;;;;;4982343;28;20526;-89
2022/06/21 00:51:40;;;;;;;5.65;3.78;;;9.30;1.00;;;;;;5015697;28;20053;-88
2022/06/21 00:54:11;;;;;;;9.20;3.72;;;9.30;1.00;;;;;;4983836;28;20459;-87
2022/06/21 00:56:43;;;;;;;16.17;5.05;;;9.30;1.00;;;;;;4984152;28;20049;-88
2022/06/21 00:59:21;;;;;;;10.38;4.60;;;9.30;1.00;;;;;;4995576;28;20126;-88
2022/06/21 01:01:48;;;;;;;6.55;3.63;;;9.30;1.00;;;;;;4997803;28;20229;-87
2022/06/21 01:04:30;;;;;;;9.25;5.10;;;9.20;1.00;;;;;;5011004;28;20081;-87
2022/06/21 01:06:59;;;;;;;11.98;4.75;;;9.20;45.30;;;;;;4984046;28;20370;-88
2022/06/21 01:09:41;;;;;;;11.35;5.60;;;9.20;11.00;;;;;;5009449;28;20679;-87
2022/06/21 01:12:15;;;;;;;13.27;5.38;;;9.20;8.80;;;;;;5002463;28;20537;-88
2022/06/21 01:15:17;;;;;;;13.13;5.97;;;9.10;6.90;;;;;;4997035;28;20094;-88
2022/06/21 01:17:46;;;;;;;9.30;5.28;;;9.10;22.20;;;;;;4961368;28;20126;-86
2022/06/21 01:20:17;;;;;;;15.27;5.63;;;9.00;16.70;;;;;;4993142;28;20050;-87
2022/06/21 01:22:46;;;;;;;9.55;5.15;;;9.00;15.50;;;;;;4996271;28;20070;-87
2022/06/21 01:25:25;;;;;;;9.65;4.63;;;9.00;7.60;;;;;;4986830;28;20045;-87
2022/06/21 01:27:54;;;;;;;9.63;4.60;;;9.00;11.00;;;;;;4987867;28;20057;-87
2022/06/21 01:30:22;;;;;;;9.63;4.85;;;8.90;10.40;;;;;;5012806;28;20053;-87
2022/06/21 01:32:48;;;;;;;9.45;4.82;;;9.00;16.70;;;;;;5005562;28;20041;-88
2022/06/21 01:35:36;;;;;;;9.93;4.88;;;8.90;9.00;;;;;;5017068;28;20394;-88
2022/06/21 01:38:05;;;;;;;8.52;4.90;;;8.90;5.60;;;;;;4979894;28;20046;-88
2022/06/21 01:40:35;;;;;;;11.88;5.78;;;9.00;24.40;;;;;;5017359;28;20050;-87
2022/06/21 01:43:09;;;;;;;10.63;5.90;;;8.90;12.20;;;;;;4986453;28;20485;-86
2022/06/21 01:45:39;;;;;;;8.93;5.88;;;8.90;10.40;;;;;;5003797;28;20050;-86
2022/06/21 01:48:29;;;;;;;7.70;5.50;;;8.90;11.30;;;;;;5014548;28;20053;-86
2022/06/21 01:51:01;;;;;;;7.75;5.05;;;8.80;1.00;;;;;;4999685;28;20085;-87
2022/06/21 01:53:30;;;;;;;9.30;4.80;;;8.70;8.90;;;;;;4985937;28;20050;-87
2022/06/21 01:56:00;;;;;;;10.10;5.30;;;8.70;14.60;;;;;;4983648;28;20046;-87
2022/06/21 01:58:32;;;;;;;8.00;5.10;;;8.70;32.10;;;;;;4989515;28;20041;-87
2022/06/21 02:01:01;;;;;;;12.00;4.95;;;8.70;29.10;;;;;;4984320;28;20116;-87
2022/06/21 02:03:35;;;;;;;6.70;4.78;;;8.70;21.70;;;;;;4982027;28;20065;-86
2022/06/21 02:06:09;;;;;;;10.43;5.77;;;8.70;28.90;;;;;;5000695;28;20046;-86
2022/06/21 02:08:51;;;;;;;7.45;4.60;;;8.70;28.50;;;;;;5002042;28;20286;-87
2022/06/21 02:11:23;;;;;;;11.10;5.63;;;8.60;14.50;;;;;;4987220;28;20456;-86
2022/06/21 02:16:40;;;;;;;9.25;4.85;;;8.70;29.90;;;;;;5016388;28;20065;-86
2022/06/21 02:19:13;;;;;;;8.38;5.28;;;8.70;7.60;;;;;;4997843;28;20050;-87
2022/06/21 02:21:41;;;;;;;7.82;5.10;;;8.60;16.70;;;;;;5012264;28;20067;-87
2022/06/21 02:24:12;;;;;;;8.05;5.38;;;8.60;17.90;;;;;;5013755;28;20385;-87
2022/06/21 02:26:38;;;;;;;7.65;5.47;;;8.70;28.20;;;;;;5016805;28;20046;-87
2022/06/21 02:29:03;;;;;;;9.80;4.80;;;8.60;49.80;;;;;;4982365;28;20491;-86
2022/06/21 02:31:30;;;;;;;6.40;5.03;;;8.60;35.30;;;;;;4987452;28;20065;-86
2022/06/21 02:34:01;;;;;;;7.40;4.20;;;8.60;34.20;;;;;;4982879;28;20505;-86
2022/06/21 02:36:32;;;;;;;7.32;5.25;;;8.50;32.00;;;;;;5014473;28;20490;-87
2022/06/21 02:39:01;;;;;;;6.45;4.60;;;8.50;32.50;;;;;;5004232;28;20057;-87
2022/06/21 02:41:39;;;;;;;8.55;5.22;;;8.60;60.80;;;;;;5015330;28;20073;-87
2022/06/21 02:44:17;;;;;;;8.25;4.97;;;8.60;67.60;;;;;;4984518;28;20062;-86
2022/06/21 02:46:47;;;;;;;9.63;4.65;;;8.70;70.40;;;;;;5014382;28;20054;-86
2022/06/21 02:49:26;;;;;;;7.75;4.13;;;8.70;69.00;;;;;;5015772;28;20046;-87
2022/06/21 02:51:59;;;;;;;9.43;5.55;;;8.70;41.50;;;;;;4997102;28;20430;-87
2022/06/21 02:54:27;;;;;;;10.98;5.93;;;8.80;60.60;;;;;;5011973;28;20436;-87
2022/06/21 02:57:01;;;;;;;13.88;6.30;;;8.90;99.90;;;;;;5000634;28;20042;-87
2022/06/21 02:59:29;;;;;;;12.15;6.70;;;8.90;76.70;;;;;;4987569;28;20074;-87
2022/06/21 03:02:04;;;;;;;14.43;6.90;;;8.90;96.70;;;;;;5000811;28;20033;-87
2022/06/21 03:04:35;;;;;;;17.13;7.28;;;9.00;97.70;;;;;;4979889;28;20073;-87
2022/06/21 03:07:02;;;;;;;15.18;7.82;;;9.10;99.90;;;;;;4985441;28;20102;-87
2022/06/21 03:09:28;;;;;;;12.85;7.18;;;9.10;99.90;;;;;;4985572;28;20038;-86
2022/06/21 03:12:05;;;;;;;12.15;6.95;;;9.10;99.90;;;;;;4983327;28;20526;-87
2022/06/21 03:14:33;;;;;;;11.50;6.20;;;9.10;99.90;;;;;;4984575;28;20037;-86
2022/06/21 03:17:02;;;;;;;8.68;5.10;;;9.10;99.90;;;;;;4985705;28;20046;-87
2022/06/21 03:19:41;;;;;;;10.90;5.40;;;8.70;64.70;;;;;;5014827;28;20436;-86
2022/06/21 03:22:25;;;;;;;9.82;5.53;;;8.50;53.50;;;;;;5018066;28;20321;-86
2022/06/21 03:24:54;;;;;;;13.23;7.47;;;8.50;36.80;;;;;;4996678;28;20137;-87
2022/06/21 03:27:19;;;;;;;14.77;7.57;;;8.90;99.90;;;;;;5014078;28;20042;-87
2022/06/21 03:29:45;;;;;;;13.23;7.88;;;9.10;99.90;;;;;;4982787;28;20596;-87
2022/06/21 03:32:11;;;;;;;11.38;6.53;;;9.10;99.90;;;;;;4998015;28;20039;-86
2022/06/21 03:34:37;;;;;;;17.67;6.07;;;9.10;99.90;;;;;;5013974;28;20394;-86
2022/06/21 03:37:03;;;;;;;17.50;6.65;;;9.10;99.90;;;;;;4984573;28;20087;-86
2022/06/21 03:42:20;;;;;;;13.25;7.95;;;9.20;99.90;;;;;;4982819;28;20520;-86
2022/06/21 03:45:12;;;;;;;11.55;6.80;;;9.40;99.90;;;;;;4981352;28;20065;-86
2022/06/21 03:47:58;;;;;;;12.80;7.88;;;9.40;99.90;;;;;;4980013;28;20058;-87
2022/06/21 03:50:31;;;;;;;20.15;9.13;;;9.60;99.90;;;;;;4994827;28;20058;-86
2022/06/21 03:53:22;;;;;;;11.70;7.75;;;9.70;99.90;;;;;;4980118;28;20113;-86
2022/06/21 03:55:47;;;;;;;11.55;7.78;;;9.80;99.90;;;;;;4982197;28;20109;-86
2022/06/21 03:58:28;;;;;;;12.55;7.78;;;9.90;99.90;;;;;;4995232;28;20403;-86
2022/06/21 04:01:12;;;;;;;9.70;7.85;;;10.10;99.90;;;;;;5012716;28;20042;-87
2022/06/21 04:03:52;;;;;;;13.43;7.43;;;10.20;99.90;;;;;;5010316;28;20430;-87
2022/06/21 04:06:28;;;;;;;10.85;7.50;;;10.30;99.90;;;;;;4998922;28;20059;-87
2022/06/21 04:09:05;;;;;;;12.65;7.68;;;10.30;99.90;;;;;;5012057;28;20034;-87
2022/06/21 04:11:54;;;;;;;16.05;8.38;;;10.40;99.90;;;;;;4978779;28;20046;-86
2022/06/21 04:14:39;;;;;;;14.15;8.02;;;10.50;99.90;;;;;;4998778;28;20075;-86
2022/06/21 04:17:20;;;;;;;11.15;7.30;;;10.70;99.90;;;;;;5009730;28;20058;-86
2022/06/21 04:19:55;;;;;;;11.07;6.97;;;10.70;99.90;;;;;;4998635;28;20105;-86
2022/06/21 04:22:27;;;;;;;12.15;7.43;;;10.80;94.10;;;;;;5010200;28;20030;-86
2022/06/21 04:24:52;;;;;;;10.50;6.95;;;10.90;90.70;;;;;;4985900;28;20576;-86
2022/06/21 04:27:24;;;;;;;10.35;7.75;;;10.90;90.00;;;;;;4984209;28;20062;-86
2022/06/21 04:30:11;;;;;;;12.07;6.72;;;11.10;81.10;;;;;;4999928;28;20291;-86
2022/06/21 04:32:47;;;;;;;13.32;7.25;;;11.10;46.60;;;;;;5013765;28;20657;-86
2022/06/21 04:35:33;;;;;;;10.32;7.30;;;11.20;36.00;;;;;;4978308;28;20038;-86
2022/06/21 04:38:16;;;;;;;10.55;7.10;;;11.40;18.90;;;;;;4984574;28;20419;-86
2022/06/21 04:40:49;;;;;;;13.05;7.22;;;11.60;1.00;;;;;;4997339;28;20327;-86
2022/06/21 04:43:32;;;;;;;13.50;7.18;;;11.90;1.00;;;;;;5001677;28;20380;-86
2022/06/21 04:46:02;;;;;;;12.32;6.43;;;12.00;1.00;;;;;;5011843;28;20066;-86
2022/06/21 04:48:35;;;;;;;11.07;6.28;;;11.90;1.00;;;;;;5013440;28;20057;-86
2022/06/21 04:51:23;;;;;;;9.98;6.10;;;11.90;1.00;;;;;;5011859;28;20076;-86
2022/06/21 04:53:55;;;;;;;9.90;6.80;;;11.80;1.00;;;;;;4980281;28;20038;-87
2022/06/21 04:56:51;;;;;;;12.95;6.88;;;11.80;1.00;;;;;;4982890;28;20113;-86
2022/06/21 04:59:24;;;;;;;8.70;6.18;;;11.80;1.00;;;;;;5014015;28;20100;-86
2022/06/21 05:01:50;;;;;;;12.00;6.78;;;11.90;1.00;;;;;;4988895;28;20050;-86
2022/06/21 05:04:33;;;;;;;10.40;6.78;;;12.10;1.00;;;;;;4984464;28;20042;-86
2022/06/21 05:07:03;;;;;;;10.18;6.43;;;12.30;1.00;;;;;;4988523;28;20077;-86
2022/06/21 05:09:32;;;;;;;10.63;6.53;;;12.40;1.00;;;;;;4984723;28;20052;-86
2022/06/21 05:12:20;;;;;;;9.18;6.20;;;12.40;1.00;;;;;;4986990;28;20038;-86
2022/06/21 05:14:50;;;;;;;8.90;6.22;;;12.70;1.00;;;;;;4971890;28;20130;-87
2022/06/21 05:17:19;;;;;;;10.05;6.60;;;12.70;99.90;;;;;;4986303;28;20490;-87
2022/06/21 05:19:51;;;;;;;12.80;6.50;;;12.80;99.90;;;;;;4982030;28;20113;-87
2022/06/21 05:22:22;;;;;;;10.63;6.38;;;12.90;99.90;;;;;;5016033;28;20046;-87
2022/06/21 05:24:48;;;;;;;10.85;6.53;;;12.90;99.90;;;;;;5001933;28;20070;-86
2022/06/21 05:27:28;;;;;;;12.27;6.15;;;12.80;99.90;;;;;;5013551;28;20430;-87
2022/06/21 05:30:11;;;;;;;9.68;5.97;;;12.90;99.90;;;;;;5004409;28;20261;-87
2022/06/21 05:32:44;;;;;;;10.88;6.53;;;13.00;99.90;;;;;;5011318;28;20034;-87
2022/06/21 05:35:27;;;;;;;10.32;5.95;;;13.00;99.90;;;;;;4998641;28;20046;-87
2022/06/21 05:37:58;;;;;;;9.85;6.55;;;13.20;99.90;;;;;;5013943;28;20039;-87
2022/06/21 05:40:36;;;;;;;9.93;6.10;;;13.20;99.90;;;;;;4986169;28;20053;-86
2022/06/21 05:43:02;;;;;;;10.88;5.60;;;13.30;99.90;;;;;;5014045;28;20030;-87
2022/06/21 05:45:34;;;;;;;10.63;6.20;;;13.40;99.90;;;;;;4983906;28;20397;-87
2022/06/21 05:48:03;;;;;;;11.27;5.85;;;13.60;99.90;;;;;;4986010;28;20181;-87
2022/06/21 05:50:32;;;;;;;10.07;6.28;;;13.70;99.90;;;;;;4987552;28;20501;-87
2022/06/21 05:53:09;;;;;;;10.63;5.63;;;13.70;99.90;;;;;;5006995;28;20439;-87
2022/06/21 05:55:38;;;;;;;11.15;5.97;;;13.90;99.90;;;;;;5015635;28;20042;-87
2022/06/21 05:58:14;;;;;;;8.13;5.90;;;13.90;99.90;;;;;;4984262;28;20041;-87
2022/06/21 06:00:49;;;;;;;12.60;5.88;;;14.00;99.90;;;;;;5014345;28;20076;-88
2022/06/21 06:03:26;;;;;;;7.53;5.97;;;13.90;99.90;;;;;;5003382;28;20050;-87
2022/06/21 06:05:53;;;;;;;7.55;5.60;;;14.00;99.90;;;;;;5016659;28;20074;-87
2022/06/21 06:08:22;;;;;;;8.63;5.65;;;14.30;99.90;;;;;;4989191;28;20042;-87
2022/06/21 06:10:49;;;;;;;8.95;5.38;;;14.30;99.90;;;;;;4984675;28;20042;-88
2022/06/21 06:13:27;;;;;;;9.48;5.82;;;14.40;99.90;;;;;;4984527;28;20041;-88
2022/06/21 06:15:57;;;;;;;8.50;5.00;;;14.50;99.90;;;;;;4980396;28;20046;-87
2022/06/21 06:18:40;;;;;;;10.32;4.70;;;14.60;99.90;;;;;;5009333;28;20034;-88
2022/06/21 06:21:27;;;;;;;8.02;3.65;;;14.70;99.90;;;;;;5013325;28;20038;-87
2022/06/21 06:24:00;;;;;;;9.32;2.90;;;14.90;99.90;;;;;;5003583;28;20038;-88
2022/06/21 06:26:33;;;;;;;11.05;3.50;;;15.00;99.90;;;;;;4983969;28;20489;-88
2022/06/21 06:29:23;;;;;;;6.13;2.88;;;15.00;99.90;;;;;;4987441;28;20042;-88
2022/06/21 06:32:09;;;;;;;6.53;2.42;;;14.90;99.90;;;;;;5000107;28;20042;-87
2022/06/21 06:34:42;;;;;;;6.55;3.70;;;15.10;99.90;;;;;;5015000;28;20042;-88
2022/06/21 06:37:30;;;;;;;10.20;4.78;;;15.00;99.90;;;;;;4997433;28;20054;-89
2022/06/21 06:39:57;;;;;;;6.68;4.18;;;15.00;99.90;;;;;;4980117;28;20046;-87
2022/06/21 06:42:27;;;;;;;8.80;4.35;;;15.30;99.90;;;;;;4982380;28;20054;-89
2022/06/21 06:44:57;;;;;;;8.15;3.72;;;15.50;99.90;;;;;;4972175;28;20058;-88
2022/06/21 06:47:28;;;;;;;6.75;3.80;;;16.00;99.90;;;;;;5004926;28;20042;-88
2022/06/21 06:50:30;;;;;;;6.88;3.90;;;16.00;99.90;;;;;;5000101;28;20471;-88
2022/06/21 06:53:15;;;;;;;6.53;3.90;;;16.40;97.50;;;;;;4990343;28;20048;-88
2022/06/21 06:55:51;;;;;;;8.07;3.63;;;16.50;95.50;;;;;;5002812;28;20042;-88
2022/06/21 06:58:38;;;;;;;8.25;4.03;;;16.60;42.70;;;;;;5018643;28;20057;-88
2022/06/21 07:01:15;;;;;;;9.27;3.85;;;16.60;60.40;;;;;;5005496;28;20033;-88
2022/06/21 07:03:53;;;;;;;5.93;3.50;;;16.70;1.00;;;;;;5012205;28;20042;-84
2022/06/21 07:06:20;;;;;;;5.10;3.38;;;16.70;21.80;;;;;;4982141;28;20089;-83
2022/06/21 07:09:01;;;;;;;6.65;3.20;;;16.60;93.40;;;;;;4983641;28;20141;-84
2022/06/21 07:11:44;;;;;;;6.50;3.40;;;16.30;10.40;;;;;;4996191;28;20488;-88
2022/06/21 07:14:17;;;;;;;7.97;2.97;;;16.00;92.80;;;;;;4998731;28;20135;-88
2022/06/21 07:16:43;;;;;;;7.45;3.17;;;15.80;67.90;;;;;;4997677;28;20271;-88
2022/06/21 07:19:10;;;;;;;7.93;3.40;;;15.40;41.90;;;;;;4984138;28;20046;-89
2022/06/21 07:21:38;;;;;;;10.25;3.50;;;15.40;75.70;;;;;;5001588;28;20407;-88
2022/06/21 07:24:13;;;;;;;7.90;3.63;;;15.70;99.90;;;;;;4984371;28;20038;-88
2022/06/21 07:26:52;;;;;;;7.15;3.42;;;16.10;98.60;;;;;;5015338;28;20350;-88
2022/06/21 07:29:35;;;;;;;7.90;3.45;;;16.20;43.50;;;;;;5011878;28;20133;-89
2022/06/21 07:32:11;;;;;;;6.38;3.42;;;16.60;27.20;;;;;;4996321;28;20117;-89
2022/06/21 07:34:42;;;;;;;7.65;3.97;;;16.40;1.00;;;;;;4994063;28;20050;-89
2022/06/21 07:37:12;;;;;;;7.25;3.00;;;16.50;17.00;;;;;;4999239;28;20038;-88
2022/06/21 07:39:44;;;;;;;5.68;3.30;;;16.60;1.00;;;;;;4999107;28;20065;-88
2022/06/21 07:42:26;;;;;;;3.42;2.42;;;16.80;1.00;;;;;;5066634;28;20383;-86
2022/06/21 07:45:14;;;;;;;6.53;2.60;;;16.90;1.00;;;;;;5063523;28;20094;-87
2022/06/21 07:47:54;;;;;;;4.60;2.75;;;16.60;2.80;;;;;;5049558;28;20315;-87
2022/06/21 07:50:29;;;;;;;5.35;2.80;;;16.90;1.00;;;;;;5071353;28;20041;-87
2022/06/21 07:53:01;;;;;;;6.18;2.88;;;16.40;1.00;;;;;;5036878;28;20052;-87
2022/06/21 07:55:36;;;;;;;5.38;2.80;;;16.20;1.00;;;;;;5048346;28;20041;-87
2022/06/21 07:58:10;;;;;;;6.63;2.90;;;16.20;1.00;;;;;;5042988;28;20511;-86
2022/06/21 08:09:39;;;;;;;5.53;2.90;;;17.20;1.00;;;;;;5065961;28;20041;-87
2022/06/21 08:12:09;;;;;;;6.40;3.00;;;17.70;1.00;;;;;;5045972;28;20396;-86
2022/06/21 08:14:35;;;;;;;6.25;3.00;;;18.10;1.00;;;;;;5035751;28;20093;-86
2022/06/21 08:17:14;;;;;;;8.18;3.60;;;18.10;1.00;;;;;;5042235;28;20033;-87
2022/06/21 08:19:53;;;;;;;5.05;2.58;;;18.10;1.00;;;;;;5072721;28;20041;-87
2022/06/21 08:22:37;;;;;;;6.28;2.80;;;18.10;1.00;;;;;;5051805;28;20137;-86
2022/06/21 08:25:29;;;;;;;6.30;3.00;;;17.40;1.00;;;;;;5067740;28;20033;-87
2022/06/21 08:28:04;;;;;;;5.20;2.30;;;17.70;1.00;;;;;;5036303;28;20122;-86
2022/06/21 08:30:52;;;;;;;5.43;2.50;;;17.00;1.00;;;;;;5030894;28;20059;-86
2022/06/21 08:33:23;;;;;;;5.20;2.97;;;17.10;1.00;;;;;;5047966;28;20123;-87
2022/06/21 08:36:06;;;;;;;6.90;2.97;;;17.40;1.00;;;;;;5054218;28;20049;-86
2022/06/21 08:38:37;;;;;;;7.75;2.53;;;17.50;1.00;;;;;;5063148;28;20419;-86
2022/06/21 08:41:52;;;;;;;10.55;2.75;;;17.90;1.00;;;;;;5042654;28;20064;-87
2022/06/21 08:44:14;;;;;;;8.35;2.72;;;17.20;1.00;;;;;;5046874;28;20040;-86
2022/06/21 08:47:01;;;;;;;4.88;2.38;;;17.20;1.00;;;;;;5049646;28;20416;-86
2022/06/21 08:49:46;;;;;;;4.45;2.03;;;17.10;1.00;;;;;;5051614;28;20515;-85
2022/06/21 08:52:52;;;;;;;5.72;2.20;;;17.20;1.00;;;;;;5031409;28;20036;-86
2022/06/21 08:55:59;;;;;;;4.40;2.40;;;17.60;1.00;;;;;;5036448;28;20045;-86
2022/06/21 08:58:36;;;;;;;4.43;2.08;;;17.80;1.00;;;;;;5031943;28;20271;-86
2022/06/21 09:01:16;;;;;;;4.65;2.15;;;18.10;1.00;;;;;;5039384;28;20037;-86
2022/06/21 09:04:02;;;;;;;4.78;2.03;;;18.20;1.00;;;;;;5015430;28;20025;-86
2022/06/21 09:07:02;;;;;;;4.63;2.38;;;18.50;1.00;;;;;;5020480;28;20100;-86
2022/06/21 09:10:02;;;;;;;5.32;2.25;;;18.60;1.00;;;;;;5022594;28;20064;-86
2022/06/21 09:12:45;;;;;;;5.78;2.20;;;18.90;1.00;;;;;;5018855;28;20063;-86
2022/06/21 09:15:17;;;;;;;6.45;2.53;;;18.80;99.90;;;;;;5047040;28;20052;-85
2022/06/21 09:17:58;;;;;;;8.60;2.60;;;18.70;99.90;;;;;;5017306;28;20044;-86
2022/06/21 09:20:43;;;;;;;4.15;2.20;;;19.20;99.90;;;;;;5034427;28;20063;-87
2022/06/21 09:23:24;;;;;;;6.07;2.30;;;18.70;1.00;;;;;;5021283;28;20037;-86
2022/06/21 09:26:10;;;;;;;4.90;2.00;;;18.50;1.00;;;;;;5032566;28;20056;-86
2022/06/21 09:28:58;;;;;;;4.53;2.17;;;18.40;1.00;;;;;;5027106;28;20044;-85
2022/06/21 09:31:48;;;;;;;4.63;1.88;;;18.30;1.00;;;;;;5023802;28;20075;-85
2022/06/21 09:34:58;;;;;;;5.95;1.92;;;18.40;99.90;;;;;;5034099;28;20114;-86
2022/06/21 09:37:36;;;;;;;4.38;1.60;;;19.10;1.00;;;;;;5028578;28;20173;-86
2022/06/21 09:40:33;;;;;;;3.20;1.52;;;19.20;99.90;;;;;;5035423;28;20033;-85
2022/06/21 09:43:11;;;;;;;5.65;1.52;;;19.70;1.00;;;;;;5028253;28;20370;-86
2022/06/21 09:45:47;;;;;;;3.28;1.67;;;19.90;99.90;;;;;;5032420;28;20244;-85
2022/06/21 09:48:23;;;;;;;4.82;1.73;;;20.50;99.90;;;;;;5030171;28;20467;-86
2022/06/21 09:51:04;;;;;;;3.75;1.80;;;20.40;99.90;;;;;;5018189;28;20669;-85
2022/06/21 09:54:05;;;;;;;5.68;1.80;;;20.30;99.90;;;;;;5015658;28;20041;-87
2022/06/21 09:56:37;;;;;;;4.05;1.60;;;20.30;99.90;;;;;;5028537;28;20128;-86
2022/06/21 09:59:08;;;;;;;3.78;1.40;;;20.80;99.90;;;;;;5012996;28;20046;-85
2022/06/21 10:01:58;;;;;;;3.88;1.48;;;20.80;99.90;;;;;;5028117;28;20033;-86
2022/06/21 10:04:52;;;;;;;3.78;1.40;;;20.80;99.90;;;;;;5032031;28;20069;-85
2022/06/21 10:07:26;;;;;;;2.15;1.17;;;20.90;99.90;;;;;;5028794;28;20116;-86
2022/06/21 10:10:18;;;;;;;5.07;1.50;;;21.10;99.90;;;;;;5034951;28;20127;-86
2022/06/21 10:12:56;;;;;;;3.53;1.27;;;21.70;99.90;;;;;;5031567;28;20047;-86
2022/06/21 10:15:52;;;;;;;5.38;1.60;;;21.50;99.90;;;;;;5033729;28;20036;-86
2022/06/21 10:18:51;;;;;;;3.20;1.40;;;21.00;99.90;;;;;;5025607;28;20500;-86
2022/06/21 10:21:25;;;;;;;4.53;1.40;;;20.90;99.90;;;;;;5033110;28;20041;-85
2022/06/21 10:23:56;;;;;;;2.05;1.10;;;20.90;99.90;;;;;;5033551;28;20033;-85
2022/06/21 10:26:53;;;;;;;3.95;1.40;;;20.50;99.90;;;;;;5030247;28;20656;-86
2022/06/21 10:30:01;;;;;;;4.38;1.80;;;20.50;99.90;;;;;;5030318;28;20041;-86
2022/06/21 10:32:51;;;;;;;3.08;1.55;;;20.40;99.90;;;;;;5032401;28;20045;-86
2022/06/21 10:35:35;;;;;;;6.10;1.60;;;21.20;99.90;;;;;;5033030;28;20681;-86
2022/06/21 10:38:12;;;;;;;4.63;1.60;;;21.00;99.90;;;;;;5031135;28;20094;-85
2022/06/21 10:40:58;;;;;;;6.22;1.80;;;21.40;99.90;;;;;;5048743;28;20057;-86
2022/06/21 10:43:54;;;;;;;2.38;1.50;;;21.80;99.90;;;;;;5028673;28;20333;-86
2022/06/21 10:46:49;;;;;;;3.40;1.40;;;21.70;99.90;;;;;;5025382;28;20163;-85
2022/06/21 10:49:46;;;;;;;7.22;1.60;;;21.50;99.90;;;;;;5019497;28;20057;-85
2022/06/21 10:52:27;;;;;;;2.83;1.40;;;21.80;99.90;;;;;;5028900;28;20551;-85
2022/06/21 10:55:02;;;;;;;3.20;1.23;;;22.30;99.90;;;;;;5029610;28;20065;-85
2022/06/21 10:57:55;;;;;;;2.55;1.50;;;22.20;99.90;;;;;;5032995;28;20536;-86
2022/06/21 11:03:32;;;;;;;5.18;1.50;;;21.80;99.90;;;;;;5035183;28;20349;-86
2022/06/21 11:06:09;;;;;;;2.92;1.35;;;21.40;99.90;;;;;;5028818;28;20388;-86
2022/06/21 11:08:56;;;;;;;4.50;1.45;;;21.60;99.90;;;;;;5030462;28;20107;-86
2022/06/21 11:11:27;;;;;;;3.50;1.40;;;21.60;99.90;;;;;;5031292;28;20518;-86
2022/06/21 11:14:10;;;;;;;4.75;1.67;;;21.80;99.90;;;;;;5013783;28;20121;-86
2022/06/21 11:17:06;;;;;;;4.50;1.35;;;21.60;99.90;;;;;;5032313;28;20040;-86
2022/06/21 11:19:58;;;;;;;2.60;1.35;;;21.20;99.90;;;;;;5032351;28;20401;-87
2022/06/21 11:22:45;;;;;;;3.17;1.27;;;21.60;99.90;;;;;;5027900;28;20045;-86
2022/06/21 11:25:22;;;;;;;3.72;1.30;;;21.80;99.90;;;;;;5034091;28;20620;-86
2022/06/21 11:28:31;;;;;;;4.72;1.60;;;22.00;99.90;;;;;;5032100;28;20068;-86
2022/06/21 11:31:12;;;;;;;4.57;1.45;;;21.80;99.90;;;;;;4998022;28;20045;-86
2022/06/21 11:34:08;;;;;;;3.80;1.15;;;21.90;99.90;;;;;;5019560;28;20045;-86
2022/06/21 11:36:57;;;;;;;4.07;1.17;;;22.60;99.90;;;;;;5044770;28;20057;-88
2022/06/21 11:39:36;;;;;;;3.42;1.23;;;22.30;99.90;;;;;;5034426;28;20056;-88
2022/06/21 11:42:10;;;;;;;2.70;1.20;;;22.30;99.90;;;;;;5018342;28;20055;-87
2022/06/21 11:45:12;;;;;;;3.38;1.40;;;22.50;99.90;;;;;;5043142;28;20052;-87
2022/06/21 11:47:41;;;;;;;4.63;1.35;;;22.80;99.90;;;;;;5033732;28;20045;-87
2022/06/21 11:50:22;;;;;;;3.22;1.10;;;23.00;99.90;;;;;;5034152;28;20037;-87
2022/06/21 11:53:10;;;;;;;2.17;1.10;;;22.90;99.90;;;;;;5026033;28;20033;-87
2022/06/21 11:55:41;;;;;;;2.30;1.10;;;23.00;99.90;;;;;;5029979;28;20482;-87
2022/06/21 11:58:32;;;;;;;3.95;1.17;;;23.10;99.90;;;;;;5010383;28;20041;-86
2022/06/21 12:00:58;;;;;;;2.25;1.23;;;23.10;99.90;;;;;;5028109;28;20140;-87
2022/06/21 12:04:05;;;;;;;3.72;1.27;;;23.80;99.90;;;;;;5018314;28;20127;-87
2022/06/21 12:06:53;;;;;;;3.53;1.20;;;23.40;99.90;;;;;;4981598;28;20042;-86
2022/06/21 12:09:41;;;;;;;1.85;1.10;;;22.90;99.90;;;;;;5010930;28;20102;-87
2022/06/21 12:12:29;;;;;;;3.30;1.08;;;22.40;99.90;;;;;;5027666;28;20466;-86
2022/06/21 12:15:20;;;;;;;4.07;1.45;;;22.30;99.90;;;;;;5022569;28;20049;-87
2022/06/21 12:17:54;;;;;;;3.47;1.15;;;22.70;99.90;;;;;;5028678;28;20041;-87
2022/06/21 12:20:49;;;;;;;3.15;1.30;;;22.60;99.90;;;;;;5015665;28;20130;-88
2022/06/21 12:23:25;;;;;;;2.57;1.20;;;22.00;99.90;;;;;;5021932;28;20126;-88
2022/06/21 12:25:52;;;;;;;5.00;1.40;;;21.80;99.90;;;;;;5024713;28;20040;-87
2022/06/21 12:28:21;;;;;;;3.00;1.50;;;22.00;99.90;;;;;;5013717;28;20085;-88
2022/06/21 12:30:48;;;;;;;3.60;1.50;;;22.60;99.90;;;;;;5004899;28;20758;-87
2022/06/21 12:33:18;;;;;;;3.10;1.30;;;22.60;99.90;;;;;;5036596;28;20047;-88
2022/06/21 12:36:13;;;;;;;4.70;1.33;;;23.00;99.90;;;;;;5021119;28;20500;-87
2022/06/21 12:39:03;;;;;;;3.03;1.40;;;22.50;99.90;;;;;;5031867;28;20068;-88
2022/06/21 12:41:38;;;;;;;3.55;1.30;;;23.00;99.90;;;;;;5038450;28;20118;-88
2022/06/21 12:44:16;;;;;;;2.65;1.35;;;23.10;99.90;;;;;;5048093;28;20045;-88
2022/06/21 12:47:05;;;;;;;3.40;1.40;;;23.90;99.90;;;;;;5015223;28;20036;-88
2022/06/21 12:50:03;;;;;;;2.72;1.17;;;24.60;99.90;;;;;;5029310;28;20452;-88
2022/06/21 12:52:59;;;;;;;4.00;1.30;;;25.30;99.90;;;;;;5045652;28;20052;-88
2022/06/21 12:55:52;;;;;;;2.75;1.17;;;24.30;99.90;;;;;;5037324;28;20496;-89
2022/06/21 12:58:31;;;;;;;2.33;1.50;;;23.00;99.90;;;;;;5029373;28;20112;-88
2022/06/21 13:01:00;;;;;;;1.73;1.10;;;23.30;99.90;;;;;;5035386;28;20049;-88
2022/06/21 13:03:45;;;;;;;2.35;1.20;;;23.30;99.90;;;;;;5016549;28;20033;-88
2022/06/21 13:06:17;;;;;;;;;;;24.60;99.90;;;;;;5018284;28;20544;-89
2022/06/21 13:09:37;;;;;;;2.40;1.20;;;24.20;99.90;;;;;;5042447;28;19917;-89
2022/06/21 13:12:25;;;;;;;3.60;1.13;;;23.80;99.90;;;;;;5037036;28;20049;-88
2022/06/21 13:14:57;;;;;;;4.30;1.10;;;23.10;99.90;;;;;;5037201;28;20048;-88
2022/06/21 13:17:38;;;;;;;4.05;1.30;;;22.60;99.90;;;;;;5034663;28;20136;-88
2022/06/21 13:20:10;;;;;;;3.20;1.42;;;22.80;99.90;;;;;;5037554;28;20095;-88
2022/06/21 13:22:59;;;;;;;2.88;1.30;;;22.40;99.90;;;;;;5031887;28;20052;-88
2022/06/21 13:25:39;;;;;;;3.05;1.05;;;23.30;99.90;;;;;;5023931;28;20211;-89
2022/06/21 13:28:25;;;;;;;3.78;1.60;;;23.70;99.90;;;;;;5012715;28;20203;-89
2022/06/21 13:30:57;;;;;;;2.10;1.10;;;23.80;99.90;;;;;;5038088;28;20473;-88
2022/06/21 13:33:51;;;;;;;4.03;1.00;;;23.30;99.90;;;;;;5026962;28;20543;-89
2022/06/21 13:36:31;;;;;;;2.05;1.10;;;24.00;99.90;;;;;;5016309;28;20126;-89
2022/06/21 13:39:21;;;;;;;2.90;1.10;;;23.70;99.90;;;;;;5026233;28;20071;-88
2022/06/21 13:44:57;;;;;;;2.63;1.30;;;24.60;99.90;;;;;;5029884;28;20040;-89
2022/06/21 13:47:59;;;;;;;2.25;1.30;;;24.20;99.90;;;;;;5019390;28;20403;-89
2022/06/21 13:50:40;;;;;;;2.53;1.40;;;24.10;99.90;;;;;;5020368;28;20044;-88
2022/06/21 13:53:10;;;;;;;3.17;0.95;;;24.50;99.90;;;;;;5035416;28;20075;-89
2022/06/21 13:56:18;;;;;;;2.00;1.00;;;24.90;99.90;;;;;;5020865;28;20155;-89
2022/06/21 13:58:51;;;;;;;3.05;1.30;;;25.80;99.90;;;;;;5015492;28;20049;-88
2022/06/21 14:01:41;;;;;;;4.82;1.52;;;25.20;99.90;;;;;;5039831;28;20047;-89
2022/06/21 14:04:12;;;;;;;5.35;1.45;;;25.50;99.90;;;;;;5013354;28;20405;-88
2022/06/21 14:07:01;;;;;;;2.28;1.13;;;25.40;99.90;;;;;;5031228;28;20045;-88
2022/06/21 14:09:37;;;;;;;3.40;1.20;;;25.10;99.90;;;;;;5034445;28;20511;-89